sensor_id;sensor_type;location;lat;lon;timestamp;temperature;humidity
12967;DHT22;6548;49.996;8.238;2022-09-17T00:01:17;10.10;99.90
12967;DHT22;6548;49.996;8.238;2022-09-17T00:03:43;9.50;99.90
12967;DHT22;6548;49.996;8.238;2022-09-17T00:06:12;9.50;99.90
12967;DHT22;6548;49.996;8.238;2022-09-17T00:08:40;9.50;99.90
12967;DHT22;6548;49.996;8.238;2022-09-17T00:11:08;9.50;99.90
12967;DHT22;6548;49.996;8.238;2022-09-17T00:13:33;9.50;99.90
12967;DHT22;6548;49.996;8.238;2022-09-17T00:15:59;9.50;99.90
12967;DHT22;6548;49.996;8.238;2022-09-17T00:18:25;9.50;99.90
12967;DHT22;6548;49.996;8.238;2022-09-17T00:20:51;9.50;99.90
12967;DHT22;6548;49.996;8.238;2022-09-17T00:23:16;9.30;99.90
12967;DHT22;6548;49.996;8.238;2022-09-17T00:25:44;9.30;99.90
12967;DHT22;6548;49.996;8.238;2022-09-17T00:28:11;9.80;99.90
12967;DHT22;6548;49.996;8.238;2022-09-17T00:30:39;9.50;99.90
12967;DHT22;6548;49.996;8.238;2022-09-17T00:33:05;10.90;99.90
12967;DHT22;6548;49.996;8.238;2022-09-17T00:35:31;10.30;99.90
12967;DHT22;6548;49.996;8.238;2022-09-17T00:37:56;9.60;99.90
12967;DHT22;6548;49.996;8.238;2022-09-17T00:40:22;10.40;99.90
12967;DHT22;6548;49.996;8.238;2022-09-17T00:42:47;9.50;99.90
12967;DHT22;6548;49.996;8.238;2022-09-17T00:45:14;9.50;99.90
12967;DHT22;6548;49.996;8.238;2022-09-17T00:47:51;9.40;99.90
12967;DHT22;6548;49.996;8.238;2022-09-17T00:50:27;9.50;99.90
12967;DHT22;6548;49.996;8.238;2022-09-17T00:53:03;9.40;99.90
12967;DHT22;6548;49.996;8.238;2022-09-17T00:55:34;9.80;99.90
12967;DHT22;6548;49.996;8.238;2022-09-17T00:58:02;10.40;99.90
12967;DHT22;6548;49.996;8.238;2022-09-17T01:00:29;9.90;99.90
12967;DHT22;6548;49.996;8.238;2022-09-17T01:02:55;9.40;99.90
12967;DHT22;6548;49.996;8.238;2022-09-17T01:05:41;9.40;99.90
12967;DHT22;6548;49.996;8.238;2022-09-17T01:08:24;9.30;99.90
12967;DHT22;6548;49.996;8.238;2022-09-17T01:14:12;9.30;99.90
12967;DHT22;6548;49.996;8.238;2022-09-17T01:16:56;9.20;99.90
12967;DHT22;6548;49.996;8.238;2022-09-17T01:35:58;9.10;99.90
12967;DHT22;6548;49.996;8.238;2022-09-17T01:38:31;9.30;99.90
12967;DHT22;6548;49.996;8.238;2022-09-17T01:41:29;9.10;99.90
12967;DHT22;6548;49.996;8.238;2022-09-17T01:44:01;9.10;99.90
12967;DHT22;6548;49.996;8.238;2022-09-17T01:46:32;9.20;99.90
12967;DHT22;6548;49.996;8.238;2022-09-17T01:49:04;9.20;99.90
12967;DHT22;6548;49.996;8.238;2022-09-17T01:51:37;9.20;99.90
12967;DHT22;6548;49.996;8.238;2022-09-17T01:54:24;9.20;99.90
12967;DHT22;6548;49.996;8.238;2022-09-17T01:57:06;9.20;99.90
12967;DHT22;6548;49.996;8.238;2022-09-17T01:59:50;9.20;99.90
12967;DHT22;6548;49.996;8.238;2022-09-17T02:02:26;9.20;99.90
12967;DHT22;6548;49.996;8.238;2022-09-17T02:05:09;9.30;99.90
12967;DHT22;6548;49.996;8.238;2022-09-17T02:07:51;9.30;99.90
12967;DHT22;6548;49.996;8.238;2022-09-17T02:10:26;9.30;99.90
12967;DHT22;6548;49.996;8.238;2022-09-17T02:13:01;9.40;99.90
12967;DHT22;6548;49.996;8.238;2022-09-17T02:15:36;9.50;99.90
12967;DHT22;6548;49.996;8.238;2022-09-17T02:18:20;9.50;99.90
12967;DHT22;6548;49.996;8.238;2022-09-17T02:20:53;9.50;99.90
12967;DHT22;6548;49.996;8.238;2022-09-17T02:23:27;9.70;99.90
12967;DHT22;6548;49.996;8.238;2022-09-17T02:26:03;9.70;99.90
12967;DHT22;6548;49.996;8.238;2022-09-17T02:28:32;9.60;99.90
12967;DHT22;6548;49.996;8.238;2022-09-17T02:31:01;9.70;99.90
12967;DHT22;6548;49.996;8.238;2022-09-17T02:33:29;9.70;99.90
12967;DHT22;6548;49.996;8.238;2022-09-17T02:35:56;9.70;99.90
12967;DHT22;6548;49.996;8.238;2022-09-17T02:38:25;9.70;99.90
12967;DHT22;6548;49.996;8.238;2022-09-17T02:40:59;9.50;99.90
12967;DHT22;6548;49.996;8.238;2022-09-17T02:52:30;9.80;99.90
12967;DHT22;6548;49.996;8.238;2022-09-17T02:55:19;9.80;99.90
12967;DHT22;6548;49.996;8.238;2022-09-17T02:57:59;9.80;99.90
12967;DHT22;6548;49.996;8.238;2022-09-17T03:00:29;9.80;99.90
12967;DHT22;6548;49.996;8.238;2022-09-17T03:02:59;9.80;99.90
12967;DHT22;6548;49.996;8.238;2022-09-17T03:05:26;9.80;99.90
12967;DHT22;6548;49.996;8.238;2022-09-17T03:07:58;9.80;99.90
12967;DHT22;6548;49.996;8.238;2022-09-17T03:10:24;9.80;99.90
12967;DHT22;6548;49.996;8.238;2022-09-17T03:12:52;9.80;99.90
12967;DHT22;6548;49.996;8.238;2022-09-17T03:15:18;9.80;99.90
12967;DHT22;6548;49.996;8.238;2022-09-17T03:17:43;9.80;99.90
12967;DHT22;6548;49.996;8.238;2022-09-17T03:20:09;9.80;99.90
12967;DHT22;6548;49.996;8.238;2022-09-17T03:22:35;9.80;99.90
12967;DHT22;6548;49.996;8.238;2022-09-17T03:25:00;9.80;99.90
12967;DHT22;6548;49.996;8.238;2022-09-17T03:27:26;9.80;99.90
12967;DHT22;6548;49.996;8.238;2022-09-17T03:29:51;9.80;99.90
12967;DHT22;6548;49.996;8.238;2022-09-17T03:32:17;9.80;99.90
12967;DHT22;6548;49.996;8.238;2022-09-17T03:34:42;9.90;99.90
12967;DHT22;6548;49.996;8.238;2022-09-17T03:37:08;9.90;99.90
12967;DHT22;6548;49.996;8.238;2022-09-17T03:39:34;9.80;99.90
12967;DHT22;6548;49.996;8.238;2022-09-17T03:41:59;9.90;99.90
12967;DHT22;6548;49.996;8.238;2022-09-17T03:44:25;11.30;99.90
12967;DHT22;6548;49.996;8.238;2022-09-17T03:46:51;10.70;99.90
12967;DHT22;6548;49.996;8.238;2022-09-17T03:49:16;10.40;99.90
12967;DHT22;6548;49.996;8.238;2022-09-17T03:51:42;10.90;99.90
12967;DHT22;6548;49.996;8.238;2022-09-17T03:54:08;10.10;99.90
12967;DHT22;6548;49.996;8.238;2022-09-17T03:56:33;9.90;99.90
12967;DHT22;6548;49.996;8.238;2022-09-17T03:58:59;9.90;99.90
12967;DHT22;6548;49.996;8.238;2022-09-17T04:01:26;10.20;99.90
12967;DHT22;6548;49.996;8.238;2022-09-17T04:03:52;9.70;99.90
12967;DHT22;6548;49.996;8.238;2022-09-17T04:06:18;10.90;99.90
12967;DHT22;6548;49.996;8.238;2022-09-17T04:08:43;9.90;99.90
12967;DHT22;6548;49.996;8.238;2022-09-17T04:11:09;10.60;99.90
12967;DHT22;6548;49.996;8.238;2022-09-17T04:13:35;10.00;99.90
12967;DHT22;6548;49.996;8.238;2022-09-17T04:16:01;10.00;99.90
12967;DHT22;6548;49.996;8.238;2022-09-17T04:18:27;9.60;99.90
12967;DHT22;6548;49.996;8.238;2022-09-17T04:20:52;9.90;99.90
12967;DHT22;6548;49.996;8.238;2022-09-17T04:23:18;10.40;99.90
12967;DHT22;6548;49.996;8.238;2022-09-17T04:25:44;9.90;99.90
12967;DHT22;6548;49.996;8.238;2022-09-17T04:28:10;10.50;99.90
12967;DHT22;6548;49.996;8.238;2022-09-17T04:30:36;9.90;99.90
12967;DHT22;6548;49.996;8.238;2022-09-17T04:33:02;9.90;99.90
12967;DHT22;6548;49.996;8.238;2022-09-17T04:35:27;10.70;99.90
12967;DHT22;6548;49.996;8.238;2022-09-17T04:37:55;10.00;99.90
12967;DHT22;6548;49.996;8.238;2022-09-17T04:40:22;10.00;99.90
12967;DHT22;6548;49.996;8.238;2022-09-17T04:42:49;10.00;99.90
12967;DHT22;6548;49.996;8.238;2022-09-17T04:45:16;10.00;99.90
12967;DHT22;6548;49.996;8.238;2022-09-17T04:47:41;10.00;99.90
12967;DHT22;6548;49.996;8.238;2022-09-17T04:50:07;9.90;99.90
12967;DHT22;6548;49.996;8.238;2022-09-17T04:52:33;9.90;99.90
12967;DHT22;6548;49.996;8.238;2022-09-17T04:54:58;9.90;99.90
12967;DHT22;6548;49.996;8.238;2022-09-17T04:57:24;9.90;99.90
12967;DHT22;6548;49.996;8.238;2022-09-17T04:59:50;9.80;99.90
12967;DHT22;6548;49.996;8.238;2022-09-17T06:35:28;11.20;99.90
12967;DHT22;6548;49.996;8.238;2022-09-17T06:37:54;11.30;99.90
12967;DHT22;6548;49.996;8.238;2022-09-17T06:40:19;11.30;99.90
12967;DHT22;6548;49.996;8.238;2022-09-17T06:42:47;11.60;99.90
12967;DHT22;6548;49.996;8.238;2022-09-17T06:45:13;12.20;99.90
12967;DHT22;6548;49.996;8.238;2022-09-17T06:47:38;12.40;99.90
12967;DHT22;6548;49.996;8.238;2022-09-17T06:50:04;12.70;99.90
12967;DHT22;6548;49.996;8.238;2022-09-17T06:52:30;12.40;99.90
12967;DHT22;6548;49.996;8.238;2022-09-17T06:54:55;12.30;99.90
12967;DHT22;6548;49.996;8.238;2022-09-17T06:57:21;13.40;99.90
12967;DHT22;6548;49.996;8.238;2022-09-17T06:59:47;13.00;99.90
12967;DHT22;6548;49.996;8.238;2022-09-17T07:02:14;12.30;99.90
12967;DHT22;6548;49.996;8.238;2022-09-17T07:04:39;13.70;99.90
12967;DHT22;6548;49.996;8.238;2022-09-17T07:07:05;12.30;99.90
12967;DHT22;6548;49.996;8.238;2022-09-17T07:09:31;13.20;99.90
12967;DHT22;6548;49.996;8.238;2022-09-17T07:11:56;12.30;99.90
12967;DHT22;6548;49.996;8.238;2022-09-17T07:14:22;12.30;99.90
12967;DHT22;6548;49.996;8.238;2022-09-17T07:16:49;12.40;99.90
12967;DHT22;6548;49.996;8.238;2022-09-17T07:19:14;12.60;99.90
12967;DHT22;6548;49.996;8.238;2022-09-17T07:21:40;13.90;99.90
12967;DHT22;6548;49.996;8.238;2022-09-17T07:24:25;14.10;99.90
12967;DHT22;6548;49.996;8.238;2022-09-17T07:42:02;13.70;99.90
12967;DHT22;6548;49.996;8.238;2022-09-17T07:46:03;14.30;99.90
